Time;durP1;ratioP1;P1;durP2;ratioP2;P2;SDS_P1;SDS_P2;PMS_P1;PMS_P2;Temp;Humidity;BMP_temperature;BMP_pressure;BME280_temperature;BME280_humidity;BME280_pressure;Samples;Min_cycle;Max_cycle;Signal;HPM_P1;HPM_P2
2021/04/24 00:02:16;;;;;;;1.70;1.00;;;;;;;4.26;59.77;99673.73;1791354;78;21175;-51
2021/04/24 00:04:44;;;;;;;2.37;0.80;;;;;;;4.23;59.89;99676.48;1789481;78;21625;-51
2021/04/24 00:07:11;;;;;;;2.57;1.00;;;;;;;4.19;60.02;99685.45;1791542;78;21382;-52
2021/04/24 00:09:39;;;;;;;2.97;1.07;;;;;;;4.16;60.20;99684.21;1758264;79;21697;-51
2021/04/24 00:12:07;;;;;;;4.63;1.00;;;;;;;4.14;60.30;99683.36;1756852;79;21205;-52
2021/04/24 00:14:35;;;;;;;2.73;0.87;;;;;;;4.12;60.42;99683.39;1757226;79;21186;-52
2021/04/24 00:17:03;;;;;;;2.27;0.90;;;;;;;4.10;60.56;99683.88;1761167;79;21184;-52
2021/04/24 00:19:31;;;;;;;3.97;2.33;;;;;;;4.08;60.70;99680.85;1760711;79;21570;-51
2021/04/24 00:21:58;;;;;;;1.90;1.00;;;;;;;4.07;60.84;99688.42;1759985;79;21142;-51
2021/04/24 00:24:26;;;;;;;1.67;0.90;;;;;;;4.04;61.00;99689.81;1759928;79;21714;-52
2021/04/24 00:26:53;;;;;;;2.53;0.93;;;;;;;4.02;61.18;99686.30;1732544;79;21186;-51
2021/04/24 00:29:21;;;;;;;2.67;0.80;;;;;;;4.00;61.32;99691.65;1761931;79;21780;-51
2021/04/24 00:31:48;;;;;;;4.33;0.83;;;;;;;4.00;61.44;99694.77;1759403;79;21377;-51
2021/04/24 00:34:16;;;;;;;6.20;0.90;;;;;;;3.99;61.60;99695.71;1761711;79;21196;-51
2021/04/24 00:36:43;;;;;;;3.27;1.03;;;;;;;3.98;61.71;99700.16;1758369;79;21767;-52
2021/04/24 00:39:10;;;;;;;1.60;0.90;;;;;;;3.95;61.80;99697.55;1760073;79;21508;-51
2021/04/24 00:41:39;;;;;;;1.70;0.90;;;;;;;3.95;61.90;99694.89;1762959;79;21198;-52
2021/04/24 00:44:06;;;;;;;1.77;0.80;;;;;;;3.93;62.01;99691.38;1758510;79;22515;-52
2021/04/24 00:46:33;;;;;;;1.70;0.87;;;;;;;3.92;62.09;99697.61;1760764;79;22006;-52
2021/04/24 00:49:01;;;;;;;1.73;0.80;;;;;;;3.89;62.22;99687.05;1779594;79;21195;-51
2021/04/24 00:51:30;;;;;;;2.03;1.20;;;;;;;3.89;62.40;99702.14;1777506;79;21395;-51
2021/04/24 00:53:57;;;;;;;0.80;0.50;;;;;;;3.85;62.54;99699.11;1779873;79;21198;-52
2021/04/24 00:56:25;;;;;;;1.20;0.50;;;;;;;3.80;62.76;99702.77;1778816;79;21214;-51
2021/04/24 00:58:53;;;;;;;1.90;0.50;;;;;;;3.75;63.05;99704.63;1780876;79;21725;-51
2021/04/24 01:01:21;;;;;;;0.93;0.40;;;;;;;3.74;63.25;99698.03;1781560;79;21155;-50
2021/04/24 01:03:49;;;;;;;1.67;0.60;;;;;;;3.75;63.47;99704.63;1783074;78;21664;-50
2021/04/24 01:06:16;;;;;;;1.67;0.40;;;;;;;3.80;63.66;99698.77;1779774;79;21190;-52
2021/04/24 01:08:43;;;;;;;1.27;0.50;;;;;;;3.87;63.78;99691.52;1781592;79;21380;-51
2021/04/24 01:11:11;;;;;;;0.77;0.40;;;;;;;3.96;63.82;99685.11;1783122;79;21103;-50
2021/04/24 01:13:41;;;;;;;2.20;0.40;;;;;;;3.99;63.83;99682.39;1781435;78;21227;-51
2021/04/24 01:16:08;;;;;;;0.70;0.40;;;;;;;4.03;63.88;99682.27;1779991;79;21602;-50
2021/04/24 01:18:36;;;;;;;1.10;0.40;;;;;;;4.08;63.85;99686.18;1778989;78;21187;-52
2021/04/24 01:21:05;;;;;;;0.90;0.50;;;;;;;4.12;63.79;99687.84;1783115;79;21533;-49
2021/04/24 01:23:35;;;;;;;1.13;0.50;;;;;;;4.12;63.74;99691.84;1824065;77;21455;-49
2021/04/24 01:26:03;;;;;;;1.50;0.60;;;;;;;4.12;63.70;99693.17;1776975;78;21554;-50
2021/04/24 01:28:30;;;;;;;1.27;0.70;;;;;;;4.08;63.70;99691.50;1765382;78;21114;-50
2021/04/24 01:30:57;;;;;;;1.90;1.33;;;;;;;4.03;63.77;99685.39;1768324;78;21555;-51
2021/04/24 01:33:26;;;;;;;1.63;0.80;;;;;;;3.98;63.87;99687.30;1789716;79;21213;-51
2021/04/24 01:35:53;;;;;;;4.30;0.70;;;;;;;3.94;63.97;99682.93;1791170;78;21555;-50
2021/04/24 01:38:20;;;;;;;1.23;0.77;;;;;;;3.90;64.13;99678.60;1791834;78;20988;-49
2021/04/24 01:40:48;;;;;;;1.37;0.60;;;;;;;3.85;64.28;99676.02;1792413;78;21088;-52
2021/04/24 01:43:15;;;;;;;3.10;0.80;;;;;;;3.83;64.42;99687.16;1787523;78;20988;-52
2021/04/24 01:45:43;;;;;;;1.03;0.60;;;;;;;3.79;64.57;99693.48;1789731;78;21922;-50
2021/04/24 01:48:10;;;;;;;1.40;0.60;;;;;;;3.75;64.68;99687.33;1787725;78;21518;-51
2021/04/24 01:50:43;;;;;;;1.43;0.60;;;;;;;3.72;64.82;99683.88;1775061;79;21162;-50
2021/04/24 01:53:19;;;;;;;1.63;0.60;;;;;;;3.68;64.99;99683.50;1783291;79;21161;-49
2021/04/24 01:58:20;;;;;;;2.03;0.50;;;;;;;3.71;65.28;99686.98;1797088;78;26595;-51
2021/04/24 02:00:54;;;;;;;1.53;0.50;;;;;;;3.68;65.38;99683.05;1769765;79;20931;-49
2021/04/24 02:03:22;;;;;;;1.10;0.40;;;;;;;3.72;65.50;99681.21;1768645;79;21449;-51
2021/04/24 02:05:49;;;;;;;4.40;0.47;;;;;;;3.75;65.60;99683.33;1771660;79;21554;-49
2021/04/24 02:08:20;;;;;;;1.53;0.50;;;;;;;3.78;65.66;99677.95;1769769;79;21068;-52
2021/04/24 02:10:51;;;;;;;1.17;0.50;;;;;;;3.82;65.72;99682.77;1772399;79;21183;-52
2021/04/24 02:13:21;;;;;;;0.80;0.40;;;;;;;3.85;65.72;99676.02;1739116;81;20973;-50
2021/04/24 02:15:49;;;;;;;2.83;0.60;;;;;;;3.89;65.75;99670.19;1712239;81;21383;-50
2021/04/24 02:18:16;;;;;;;3.90;0.50;;;;;;;3.89;65.74;99670.19;1737773;81;21176;-50
2021/04/24 02:20:44;;;;;;;0.83;0.57;;;;;;;3.90;65.76;99673.28;1713700;82;20973;-51
2021/04/24 02:23:13;;;;;;;2.93;0.60;;;;;;;3.89;65.85;99674.19;1712344;83;21160;-52
2021/04/24 02:25:41;;;;;;;2.03;0.53;;;;;;;3.87;65.95;99673.34;1711926;83;21645;-52
2021/04/24 02:28:09;;;;;;;2.10;0.50;;;;;;;3.85;66.05;99677.36;1715862;81;22264;-49
2021/04/24 02:30:36;;;;;;;1.43;0.80;;;;;;;3.83;66.21;99672.52;1738237;80;21500;-51
2021/04/24 02:33:05;;;;;;;0.57;0.43;;;;;;;3.79;66.31;99673.05;1713531;81;21515;-49
2021/04/24 02:35:54;;;;;;;3.47;0.50;;;;;;;3.77;66.41;99673.53;1738649;81;21234;-51
2021/04/24 02:38:26;;;;;;;1.10;0.40;;;;;;;3.78;66.51;99671.75;1715915;82;21230;-50
2021/04/24 02:40:54;;;;;;;1.53;0.30;;;;;;;3.80;66.65;99675.27;1719724;81;22419;-50
2021/04/24 02:43:21;;;;;;;1.20;0.50;;;;;;;3.83;66.78;99676.51;1715862;81;21533;-51
2021/04/24 02:45:49;;;;;;;0.53;0.30;;;;;;;3.88;66.83;99689.73;1716296;82;21187;-52
2021/04/24 02:48:16;;;;;;;4.37;0.43;;;;;;;3.90;66.87;99688.80;1722160;81;21242;-52
2021/04/24 02:50:44;;;;;;;0.73;0.50;;;;;;;3.93;66.96;99690.04;1717805;81;21764;-51
2021/04/24 02:53:11;;;;;;;1.00;0.50;;;;;;;3.97;66.92;99693.53;1719165;81;21325;-52
2021/04/24 02:55:41;;;;;;;1.43;0.50;;;;;;;4.00;66.88;99701.42;1712342;82;21238;-50
2021/04/24 02:58:09;;;;;;;1.23;0.60;;;;;;;4.01;66.83;99696.07;1724749;80;21284;-52
2021/04/24 03:00:36;;;;;;;0.90;0.60;;;;;;;4.02;66.74;99701.82;1756882;79;21171;-51
2021/04/24 03:03:09;;;;;;;1.77;0.70;;;;;;;4.00;66.64;99699.64;1763093;79;21195;-49
2021/04/24 03:05:37;;;;;;;3.73;0.90;;;;;;;3.98;66.66;99702.82;1759725;79;21481;-50
2021/04/24 03:08:05;;;;;;;1.10;0.50;;;;;;;3.95;66.64;99697.55;1754035;79;21231;-50
2021/04/24 03:10:33;;;;;;;1.30;0.70;;;;;;;3.93;66.68;99699.81;1757294;79;21188;-50
2021/04/24 03:13:01;;;;;;;2.27;0.77;;;;;;;3.89;66.67;99709.68;1696564;82;21153;-50
2021/04/24 03:15:28;;;;;;;0.93;0.60;;;;;;;3.84;66.73;99705.34;1758033;79;21539;-49
2021/04/24 03:17:56;;;;;;;1.63;0.70;;;;;;;3.81;66.80;99707.64;1699762;82;21608;-50
2021/04/24 03:20:23;;;;;;;1.50;0.53;;;;;;;3.80;66.89;99703.22;1756050;80;21797;-50
2021/04/24 03:22:51;;;;;;;1.47;0.47;;;;;;;3.82;67.00;99703.19;1758461;79;21215;-50
2021/04/24 03:25:18;;;;;;;0.70;0.50;;;;;;;3.87;67.06;99705.28;1693940;82;21215;-51
2021/04/24 03:27:46;;;;;;;0.80;0.40;;;;;;;3.90;67.07;99710.56;1699268;82;21387;-49
2021/04/24 03:30:15;;;;;;;0.80;0.50;;;;;;;3.93;67.12;99706.02;1723930;80;21396;-51
2021/04/24 03:32:42;;;;;;;1.60;0.80;;;;;;;3.98;67.10;99708.59;1756250;80;22146;-50
2021/04/24 03:35:10;;;;;;;1.07;0.50;;;;;;;4.01;67.11;99708.05;1759677;79;21120;-49
2021/04/24 03:37:37;;;;;;;2.33;0.60;;;;;;;4.04;67.19;99708.45;1760627;79;21120;-50
2021/04/24 03:40:06;;;;;;;0.73;0.50;;;;;;;4.06;67.24;99723.50;1756022;79;21746;-51
2021/04/24 03:42:33;;;;;;;1.53;0.40;;;;;;;4.08;67.23;99718.14;1760372;79;22241;-51
2021/04/24 03:45:01;;;;;;;0.90;0.50;;;;;;;4.06;67.22;99718.17;1760528;79;21264;-48
2021/04/24 03:47:29;;;;;;;2.23;0.50;;;;;;;4.06;67.31;99723.50;1755456;79;21215;-49
2021/04/24 03:49:57;;;;;;;1.10;0.50;;;;;;;4.06;67.41;99724.83;1695943;82;21791;-49
2021/04/24 03:52:24;;;;;;;1.10;0.50;;;;;;;4.05;67.44;99724.41;1692546;82;21217;-49
2021/04/24 03:54:51;;;;;;;0.97;0.40;;;;;;;4.06;67.44;99725.28;1758379;79;21678;-49
2021/04/24 03:57:18;;;;;;;0.90;0.50;;;;;;;4.10;67.50;99718.96;1758046;79;22577;-49
2021/04/24 03:59:46;;;;;;;0.60;0.40;;;;;;;4.14;67.48;99729.98;1700871;83;21187;-50
2021/04/24 04:02:14;;;;;;;0.90;0.40;;;;;;;4.21;67.48;99728.05;1714118;81;21257;-49
2021/04/24 04:04:41;;;;;;;0.73;0.40;;;;;;;4.29;67.38;99729.63;1689525;81;21668;-50
2021/04/24 04:07:09;;;;;;;3.50;0.40;;;;;;;4.37;67.25;99738.31;1715186;81;23230;-51
2021/04/24 04:09:36;;;;;;;0.80;0.40;;;;;;;4.43;67.08;99746.16;1688171;81;21191;-51
2021/04/24 04:12:05;;;;;;;0.60;0.50;;;;;;;4.45;66.99;99744.80;1700442;82;21795;-52
2021/04/24 04:14:33;;;;;;;1.37;0.40;;;;;;;4.48;67.01;99750.06;1718955;81;21198;-50
2021/04/24 04:17:01;;;;;;;0.90;0.40;;;;;;;4.50;67.03;99754.91;1702033;83;21228;-49
2021/04/24 04:19:29;;;;;;;0.67;0.40;;;;;;;4.54;66.93;99745.91;1701066;82;21463;-52
2021/04/24 04:21:57;;;;;;;1.23;0.40;;;;;;;4.58;66.85;99751.60;1719222;81;21238;-52
2021/04/24 04:24:24;;;;;;;1.27;0.40;;;;;;;4.58;66.78;99754.27;1717128;81;21618;-52
2021/04/24 04:26:52;;;;;;;1.30;0.50;;;;;;;4.57;66.85;99756.52;1717372;81;21139;-52
2021/04/24 04:29:19;;;;;;;1.27;0.50;;;;;;;4.59;66.88;99760.02;1735971;80;21198;-52
2021/04/24 04:31:47;;;;;;;1.23;0.43;;;;;;;4.60;66.79;99759.08;1700991;82;21408;-52
2021/04/24 04:34:14;;;;;;;1.00;0.50;;;;;;;4.65;66.78;99758.98;1697614;83;21788;-51
2021/04/24 04:36:44;;;;;;;1.13;0.50;;;;;;;4.69;66.72;99760.20;1701462;82;21216;-53
2021/04/24 04:39:11;;;;;;;1.80;0.43;;;;;;;4.75;66.69;99757.41;1700892;82;21176;-52
2021/04/24 04:41:38;;;;;;;0.77;0.40;;;;;;;4.82;66.59;99754.12;1700310;82;21195;-51
2021/04/24 04:44:08;;;;;;;1.70;0.50;;;;;;;4.90;66.42;99746.80;1688773;82;21645;-52
2021/04/24 04:46:35;;;;;;;0.80;0.40;;;;;;;4.98;66.21;99747.94;1716414;82;21138;-51
2021/04/24 04:49:03;;;;;;;1.00;0.40;;;;;;;5.01;65.92;99759.88;1715722;81;21119;-53
2021/04/24 04:51:31;;;;;;;2.10;0.50;;;;;;;5.01;65.81;99760.75;1716600;81;21118;-53
2021/04/24 04:53:59;;;;;;;0.80;0.43;;;;;;;5.01;65.74;99767.42;1713082;81;21142;-51
2021/04/24 04:56:27;;;;;;;0.77;0.50;;;;;;;4.98;65.97;99771.48;1717101;81;21578;-50
2021/04/24 04:58:54;;;;;;;0.70;0.50;;;;;;;4.95;66.18;99771.55;1705085;82;21529;-51
2021/04/24 05:01:22;;;;;;;2.27;0.50;;;;;;;4.91;66.48;99768.56;1703660;81;21157;-51
2021/04/24 05:03:49;;;;;;;2.10;0.40;;;;;;;4.88;66.78;99773.96;1759907;79;21120;-53
2021/04/24 05:06:17;;;;;;;0.60;0.40;;;;;;;4.85;66.92;99775.36;1755814;79;21116;-52
2021/04/24 05:08:45;;;;;;;3.80;0.40;;;;;;;4.82;67.05;99766.13;1758696;80;22127;-51
2021/04/24 05:11:12;;;;;;;0.53;0.30;;;;;;;4.83;66.92;99767.88;1740208;79;21158;-53
2021/04/24 05:13:41;;;;;;;2.90;0.40;;;;;;;4.84;66.83;99756.30;1759632;79;21192;-52
2021/04/24 05:16:09;;;;;;;0.70;0.30;;;;;;;4.88;66.81;99756.17;1755911;79;21515;-50
2021/04/24 05:18:36;;;;;;;3.17;0.47;;;;;;;4.92;66.67;99754.31;1757205;79;21160;-51
2021/04/24 05:21:04;;;;;;;0.87;0.40;;;;;;;4.93;66.51;99758.25;1756172;79;22106;-53
2021/04/24 05:23:31;;;;;;;0.90;0.30;;;;;;;4.97;66.53;99759.06;1759883;79;21192;-52
2021/04/24 05:25:59;;;;;;;0.60;0.30;;;;;;;5.03;66.53;99762.89;1755242;79;21246;-52
2021/04/24 05:28:26;;;;;;;0.80;0.40;;;;;;;5.11;66.04;99760.03;1753868;79;21194;-51
2021/04/24 05:30:53;;;;;;;0.60;0.40;;;;;;;5.21;65.65;99754.42;1762275;79;21504;-52
2021/04/24 05:33:21;;;;;;;1.23;0.40;;;;;;;5.30;65.34;99753.30;1759906;79;21515;-50
2021/04/24 05:35:48;;;;;;;0.60;0.40;;;;;;;5.38;65.31;99748.63;1757489;79;21131;-52
2021/04/24 05:38:16;;;;;;;0.60;0.40;;;;;;;5.45;64.67;99751.99;1759704;80;21107;-51
2021/04/24 05:40:43;;;;;;;0.70;0.50;;;;;;;5.50;64.12;99751.43;1696643;83;21137;-52
2021/04/24 05:43:10;;;;;;;0.57;0.40;;;;;;;5.52;64.06;99757.16;1694399;83;21093;-50
2021/04/24 05:45:39;;;;;;;0.70;0.30;;;;;;;5.54;63.85;99757.96;1694034;83;21209;-51
2021/04/24 05:48:07;;;;;;;0.60;0.40;;;;;;;5.54;63.35;99765.09;1758138;79;21797;-51
2021/04/24 05:50:34;;;;;;;1.33;0.40;;;;;;;5.52;63.22;99765.16;1759862;80;21119;-51
2021/04/24 05:53:01;;;;;;;0.60;0.40;;;;;;;5.51;62.95;99763.41;1757921;79;21136;-52
2021/04/24 05:55:29;;;;;;;1.27;0.40;;;;;;;5.47;62.90;99764.39;1760263;79;21098;-51
2021/04/24 05:57:56;;;;;;;0.93;0.30;;;;;;;5.48;62.81;99767.94;1757862;79;21221;-51
2021/04/24 06:00:24;;;;;;;0.93;0.40;;;;;;;5.49;62.21;99773.25;1758247;80;21932;-51
2021/04/24 06:02:54;;;;;;;0.60;0.33;;;;;;;5.47;62.18;99775.08;1758034;80;21151;-52
2021/04/24 06:05:21;;;;;;;0.80;0.40;;;;;;;5.47;62.12;99771.52;1759444;79;21220;-50
2021/04/24 06:07:49;;;;;;;0.87;0.40;;;;;;;5.50;62.19;99780.34;1757742;80;21189;-52
2021/04/24 06:10:18;;;;;;;0.60;0.40;;;;;;;5.53;62.20;99772.72;1758491;79;21271;-51
2021/04/24 06:12:46;;;;;;;3.30;0.40;;;;;;;5.55;62.29;99771.73;1756176;79;22342;-50
2021/04/24 06:15:16;;;;;;;2.20;0.50;;;;;;;5.59;62.00;99772.54;1752939;79;21565;-49
2021/04/24 06:17:43;;;;;;;0.53;0.40;;;;;;;5.63;62.00;99767.52;1756343;80;21378;-50
2021/04/24 06:20:14;;;;;;;1.77;0.47;;;;;;;5.66;62.02;99769.65;1757546;79;21219;-50
2021/04/24 06:22:42;;;;;;;0.93;0.40;;;;;;;5.73;61.48;99760.13;1696371;83;21215;-50
2021/04/24 06:25:11;;;;;;;2.23;0.47;;;;;;;5.79;61.74;99763.48;1761356;79;21180;-50
2021/04/24 06:27:39;;;;;;;0.70;0.40;;;;;;;5.87;61.45;99766.81;1762397;79;21832;-50
2021/04/24 06:30:08;;;;;;;4.07;0.40;;;;;;;5.94;60.98;99763.55;1758992;79;21099;-52
2021/04/24 06:32:35;;;;;;;0.80;0.40;;;;;;;5.99;60.26;99759.82;1760252;79;21618;-49
2021/04/24 06:35:04;;;;;;;0.50;0.30;;;;;;;6.04;59.88;99761.00;1756352;79;21209;-51
2021/04/24 06:37:31;;;;;;;0.50;0.27;;;;;;;6.08;58.16;99759.55;1694997;82;21565;-52
2021/04/24 06:39:59;;;;;;;0.50;0.40;;;;;;;6.13;57.35;99758.06;1755607;80;21422;-52
2021/04/24 06:42:26;;;;;;;4.30;0.50;;;;;;;6.21;57.24;99753.84;1759554;80;21784;-51
2021/04/24 06:44:54;;;;;;;8.47;0.40;;;;;;;6.29;57.21;99759.38;1755366;79;21498;-51
2021/04/24 06:47:22;;;;;;;1.10;0.30;;;;;;;6.36;55.66;99758.72;1758167;79;21386;-51
2021/04/24 06:49:49;;;;;;;0.60;0.30;;;;;;;6.40;54.88;99755.00;1755423;79;21602;-52
2021/04/24 06:52:16;;;;;;;1.13;0.27;;;;;;;6.42;54.12;99755.84;1759040;79;21168;-52
2021/04/24 06:54:44;;;;;;;1.43;0.30;;;;;;;6.44;52.89;99757.55;1754852;79;21167;-51
2021/04/24 06:57:11;;;;;;;0.57;0.30;;;;;;;6.45;52.57;99759.77;1758429;79;21638;-51
2021/04/24 06:59:40;;;;;;;0.80;0.27;;;;;;;6.48;51.90;99767.67;1765290;79;21602;-52
2021/04/24 07:02:09;;;;;;;2.77;1.07;;;;;;;6.48;50.18;99769.47;1769305;79;21131;-51
2021/04/24 07:04:39;;;;;;;0.30;0.20;;;;;;;6.42;49.09;99766.08;1767353;79;21714;-51
2021/04/24 07:07:06;;;;;;;0.70;0.20;;;;;;;6.38;48.73;99763.07;1766751;79;21644;-51
2021/04/24 07:09:34;;;;;;;0.30;0.10;;;;;;;6.41;48.93;99760.77;1761782;79;21463;-52
2021/04/24 07:12:01;;;;;;;1.33;0.20;;;;;;;6.48;48.68;99757.44;1767312;79;21198;-51
2021/04/24 07:14:28;;;;;;;1.13;0.10;;;;;;;6.53;46.51;99768.88;1768837;79;21170;-50
2021/04/24 07:16:55;;;;;;;0.30;0.10;;;;;;;6.52;46.23;99773.35;1763061;79;21135;-52
2021/04/24 07:19:24;;;;;;;1.67;0.10;;;;;;;6.49;45.81;99767.21;1764232;79;21503;-51
2021/04/24 07:21:53;;;;;;;2.57;0.10;;;;;;;6.46;45.28;99774.89;1707395;83;21685;-51
2021/04/24 07:24:20;;;;;;;0.83;0.20;;;;;;;6.41;46.00;99767.00;1763296;79;22747;-50
2021/04/24 07:26:47;;;;;;;1.00;0.20;;;;;;;6.44;46.59;99773.59;1768708;79;21112;-51
2021/04/24 07:29:17;;;;;;;0.20;0.10;;;;;;;6.55;47.43;99760.36;1768932;79;21104;-51
2021/04/24 07:31:46;;;;;;;0.30;0.17;;;;;;;6.74;47.27;99766.38;1765298;79;21116;-52
2021/04/24 07:34:13;;;;;;;0.20;0.10;;;;;;;6.91;46.54;99768.50;1768310;79;21135;-52
2021/04/24 07:36:41;;;;;;;0.40;0.10;;;;;;;7.06;45.67;99779.19;1707211;82;22351;-51
2021/04/24 07:39:08;;;;;;;2.97;0.20;;;;;;;7.07;45.05;99775.09;1764389;79;21147;-52
2021/04/24 07:41:35;;;;;;;0.37;0.10;;;;;;;7.07;44.81;99778.23;1765780;79;21116;-51
2021/04/24 07:44:03;;;;;;;0.20;0.10;;;;;;;7.01;44.14;99775.77;1768751;79;21672;-51
2021/04/24 07:46:31;;;;;;;0.17;0.10;;;;;;;6.95;44.24;99778.66;1763821;79;21100;-51
2021/04/24 07:48:58;;;;;;;0.40;0.10;;;;;;;6.89;44.14;99770.34;1764407;79;21827;-51
2021/04/24 07:51:25;;;;;;;0.23;0.10;;;;;;;6.88;42.74;99780.67;1767218;79;21134;-51
2021/04/24 07:53:53;;;;;;;0.10;0.10;;;;;;;6.82;42.83;99783.06;1763713;79;21151;-53
2021/04/24 07:56:20;;;;;;;0.20;0.10;;;;;;;6.83;43.46;99786.61;1704785;82;21487;-51
2021/04/24 07:58:47;;;;;;;1.43;0.20;;;;;;;6.82;43.27;99784.39;1765850;79;21208;-52
2021/04/24 08:01:15;;;;;;;0.60;0.10;;;;;;;6.86;43.34;99781.63;1762045;79;21682;-51
2021/04/24 08:03:46;;;;;;;0.47;0.20;;;;;;;6.89;43.70;99783.73;1763288;79;21176;-50
2021/04/24 08:06:14;;;;;;;0.30;0.10;;;;;;;6.98;44.25;99787.90;1763359;79;21654;-52
2021/04/24 08:08:41;;;;;;;0.20;0.10;;;;;;;7.12;43.66;99775.83;1761775;80;21210;-51
2021/04/24 08:11:09;;;;;;;0.40;0.10;;;;;;;7.29;41.39;99785.09;1762256;79;21199;-50
2021/04/24 08:13:36;;;;;;;0.73;0.10;;;;;;;7.41;41.05;99790.88;1765571;79;21530;-49
2021/04/24 08:16:04;;;;;;;0.20;0.10;;;;;;;7.56;39.84;99784.12;1766103;79;21175;-52
2021/04/24 08:18:31;;;;;;;0.43;0.10;;;;;;;7.61;40.18;99780.81;1764535;79;21937;-50
2021/04/24 08:20:59;;;;;;;0.60;0.10;;;;;;;7.64;38.86;99784.73;1763141;79;21183;-52
2021/04/24 08:23:26;;;;;;;0.30;0.10;;;;;;;7.56;38.64;99787.69;1763259;79;21218;-52
2021/04/24 08:25:53;;;;;;;1.10;0.50;;;;;;;7.49;39.27;99791.94;1765197;79;21180;-52
2021/04/24 08:28:21;;;;;;;1.87;0.60;;;;;;;7.44;40.02;99793.45;1763815;79;21225;-51
2021/04/24 08:30:48;;;;;;;0.40;0.20;;;;;;;7.46;40.57;99790.73;1764146;80;21190;-52
2021/04/24 08:33:16;;;;;;;1.10;0.17;;;;;;;7.47;40.62;99808.09;1765220;79;21223;-51
2021/04/24 08:35:43;;;;;;;1.90;0.20;;;;;;;7.44;40.96;99797.94;1763315;79;21601;-52
2021/04/24 08:38:10;;;;;;;0.90;0.20;;;;;;;7.35;40.53;99801.81;1763516;79;21704;-52
2021/04/24 08:40:38;;;;;;;1.00;0.30;;;;;;;7.28;40.11;99802.95;1763492;79;21211;-53
2021/04/24 08:43:05;;;;;;;0.50;0.20;;;;;;;7.21;39.01;99809.45;1763770;79;21160;-51
2021/04/24 08:45:33;;;;;;;0.70;0.10;;;;;;;7.16;38.76;99795.32;1764082;79;21198;-52
2021/04/24 08:48:01;;;;;;;0.50;0.40;;;;;;;7.21;38.79;99792.92;1761842;79;21797;-51
2021/04/24 08:50:31;;;;;;;0.50;0.10;;;;;;;7.33;38.62;99779.56;1762788;79;21648;-51
2021/04/24 08:53:00;;;;;;;0.20;0.10;;;;;;;7.44;38.96;99788.56;1766426;79;21143;-52
2021/04/24 08:55:36;;;;;;;0.63;0.10;;;;;;;7.48;38.55;99796.45;1765973;79;21114;-52
2021/04/24 08:58:05;;;;;;;0.90;0.20;;;;;;;7.53;38.97;99783.77;1764788;80;21134;-53
2021/04/24 09:00:37;;;;;;;0.20;0.10;;;;;;;7.63;39.92;99787.00;1733929;81;21160;-52
2021/04/24 09:03:10;;;;;;;0.50;0.17;;;;;;;7.72;40.65;99788.47;1762850;79;22338;-53
2021/04/24 09:05:37;;;;;;;0.40;0.20;;;;;;;7.83;39.47;99801.87;1764273;79;21147;-54
2021/04/24 09:08:07;;;;;;;0.30;0.10;;;;;;;7.84;38.85;99805.42;1766159;79;21123;-52
2021/04/24 09:10:43;;;;;;;0.17;0.10;;;;;;;7.79;38.43;99806.07;1760508;79;21107;-52
2021/04/24 09:13:11;;;;;;;0.10;0.10;;;;;;;7.79;38.70;99798.03;1764324;79;21473;-53
2021/04/24 09:15:40;;;;;;;0.97;0.10;;;;;;;7.86;38.21;99784.35;1766289;79;21048;-52
2021/04/24 09:18:09;;;;;;;2.93;0.20;;;;;;;7.95;38.03;99791.17;1764916;79;21254;-50
2021/04/24 09:21:00;;;;;;;0.40;0.10;;;;;;;7.96;36.18;99797.83;1763384;79;21158;-49
2021/04/24 09:23:33;;;;;;;0.20;0.20;;;;;;;7.89;36.58;99805.69;1764639;79;21207;-50
2021/04/24 09:26:06;;;;;;;0.40;0.13;;;;;;;7.88;37.54;99797.23;1767796;79;21100;-53
2021/04/24 09:28:41;;;;;;;0.30;0.10;;;;;;;7.97;37.82;99796.91;1769103;79;21197;-52
2021/04/24 09:31:18;;;;;;;0.25;0.10;;;;;;;8.07;38.67;99781.35;1764831;79;21236;-51
2021/04/24 09:33:46;;;;;;;2.20;0.10;;;;;;;8.19;38.00;99790.25;1705190;82;21183;-52
2021/04/24 09:36:19;;;;;;;0.30;0.10;;;;;;;8.25;37.13;99806.10;1769126;79;21108;-52
2021/04/24 09:38:48;;;;;;;0.30;0.10;;;;;;;8.19;36.28;99817.06;1766188;79;21203;-52
2021/04/24 09:41:27;;;;;;;0.17;0.10;;;;;;;8.09;36.75;99809.42;1766275;79;21415;-53
2021/04/24 09:44:12;;;;;;;0.40;0.10;;;;;;;8.03;37.27;99813.22;1765000;79;21128;-52
2021/04/24 09:46:51;;;;;;;0.30;0.10;;;;;;;8.03;38.02;99801.61;1765054;79;21151;-50
2021/04/24 09:49:31;;;;;;;1.07;0.00;;;;;;;8.09;37.89;99800.03;1705950;82;22578;-50
2021/04/24 09:52:03;;;;;;;0.20;0.10;;;;;;;8.15;37.83;99806.53;1766756;79;21512;-52
2021/04/24 09:54:38;;;;;;;0.60;0.10;;;;;;;8.17;38.11;99800.62;1766017;79;22830;-52
2021/04/24 09:57:14;;;;;;;0.10;0.03;;;;;;;8.23;36.60;99810.67;1763953;79;21214;-51
2021/04/24 10:00:05;;;;;;;0.10;0.00;;;;;;;8.19;36.40;99809.48;1755483;79;21141;-51
2021/04/24 10:02:45;;;;;;;0.30;0.07;;;;;;;8.18;35.90;99806.39;1737588;80;21724;-52
2021/04/24 10:05:21;;;;;;;0.40;0.10;;;;;;;8.14;35.71;99812.36;1735207;80;21633;-52
2021/04/24 10:07:55;;;;;;;1.07;0.10;;;;;;;8.10;36.12;99813.39;1732769;80;21624;-52
2021/04/24 10:10:38;;;;;;;0.20;0.10;;;;;;;8.07;36.26;99816.67;1736591;80;21927;-52
2021/04/24 10:13:07;;;;;;;0.13;0.10;;;;;;;8.04;36.08;99815.43;1730470;80;21156;-52
2021/04/24 10:15:41;;;;;;;2.53;0.10;;;;;;;8.05;36.58;99817.19;1733414;80;21102;-52
2021/04/24 10:18:11;;;;;;;0.43;0.27;;;;;;;8.11;35.95;99814.27;1739864;80;21125;-52
2021/04/24 10:20:43;;;;;;;0.50;0.10;;;;;;;8.15;36.20;99808.75;1737647;80;21173;-53
2021/04/24 10:23:12;;;;;;;0.20;0.00;;;;;;;8.26;35.50;99807.86;1738509;80;21441;-52
2021/04/24 10:25:42;;;;;;;0.77;0.10;;;;;;;8.28;36.68;99816.72;1736280;80;21604;-52
2021/04/24 10:28:10;;;;;;;0.20;0.00;;;;;;;8.37;36.79;99819.56;1736290;80;21160;-52
2021/04/24 10:30:39;;;;;;;0.73;0.50;;;;;;;8.39;36.54;99821.72;1739759;80;22028;-53
2021/04/24 10:33:06;;;;;;;0.40;0.20;;;;;;;8.35;36.33;99822.30;1737139;80;22373;-52
2021/04/24 10:35:34;;;;;;;0.30;0.10;;;;;;;8.30;36.91;99830.96;1735688;80;21121;-53
2021/04/24 10:38:01;;;;;;;0.20;0.10;;;;;;;8.23;36.63;99830.78;1738383;80;21164;-53
2021/04/24 10:40:29;;;;;;;2.63;0.10;;;;;;;8.16;36.95;99826.59;1735882;80;21538;-52
2021/04/24 10:42:56;;;;;;;1.70;0.10;;;;;;;8.17;37.24;99824.75;1738414;80;21152;-53
2021/04/24 10:45:34;;;;;;;0.20;0.10;;;;;;;8.17;36.60;99824.29;1699181;82;21208;-52
2021/04/24 10:48:03;;;;;;;0.30;0.10;;;;;;;8.19;37.06;99820.22;1738105;80;21130;-51
2021/04/24 10:50:46;;;;;;;0.67;0.10;;;;;;;8.20;36.74;99827.33;1737355;80;21533;-50
2021/04/24 10:53:28;;;;;;;0.50;0.20;;;;;;;8.23;36.98;99824.55;1732285;80;21201;-50
2021/04/24 10:56:00;;;;;;;0.60;0.20;;;;;;;8.30;36.54;99826.06;1737734;80;21140;-53
2021/04/24 10:58:29;;;;;;;0.30;0.10;;;;;;;8.39;36.70;99819.04;1736291;80;21581;-52
2021/04/24 11:00:58;;;;;;;0.80;0.10;;;;;;;8.54;36.11;99825.61;1753514;79;21172;-53
2021/04/24 11:03:52;;;;;;;0.40;0.10;;;;;;;8.66;35.50;99822.47;1760071;79;21445;-51
2021/04/24 11:06:23;;;;;;;0.20;0.10;;;;;;;8.74;35.24;99824.38;1698463;82;21737;-52
2021/04/24 11:09:17;;;;;;;0.17;0.10;;;;;;;8.78;35.34;99831.83;1697153;82;21141;-52
2021/04/24 11:11:47;;;;;;;0.30;0.10;;;;;;;8.82;34.75;99830.31;1699458;80;21400;-53
2021/04/24 11:14:18;;;;;;;0.20;0.10;;;;;;;8.85;34.99;99824.80;1736846;79;21535;-52
2021/04/24 11:16:46;;;;;;;0.70;0.20;;;;;;;8.93;35.21;99817.81;1693821;82;21200;-51
2021/04/24 11:19:44;;;;;;;0.20;0.10;;;;;;;8.99;34.94;99814.41;1651943;84;21208;-52
2021/04/24 11:22:35;;;;;;;0.20;0.10;;;;;;;9.03;34.16;99834.80;1755231;79;21179;-52
2021/04/24 11:25:28;;;;;;;0.40;0.20;;;;;;;9.07;33.34;99807.38;1756755;79;21381;-53
2021/04/24 11:28:08;;;;;;;0.40;0.10;;;;;;;9.16;33.88;99823.58;1750756;79;21164;-52
2021/04/24 11:31:00;;;;;;;0.10;0.10;;;;;;;9.22;33.57;99808.08;1756915;79;21160;-52
2021/04/24 11:33:35;;;;;;;0.30;0.10;;;;;;;9.27;33.14;99810.59;1756190;79;21111;-52
2021/04/24 11:36:20;;;;;;;0.20;0.10;;;;;;;9.32;32.76;99824.69;1759990;79;21204;-52
2021/04/24 11:39:06;;;;;;;0.10;0.00;;;;;;;9.34;32.15;99802.20;1755721;79;21346;-52
2021/04/24 11:41:43;;;;;;;2.05;0.10;;;;;;;9.35;31.73;99799.92;1757430;79;21207;-52
2021/04/24 11:48:51;;;;;;;0.10;0.00;;;;;;;9.37;31.36;99814.61;1669181;82;21543;-52
2021/04/24 11:51:43;;;;;;;0.20;0.10;;;;;;;9.36;32.17;99803.45;1642587;85;21612;-52
2021/04/24 11:54:27;;;;;;;0.30;0.10;;;;;;;9.38;32.25;99795.74;1670222;84;22018;-52
2021/04/24 11:56:56;;;;;;;0.30;0.10;;;;;;;9.46;31.90;99800.78;1705147;82;21366;-51
2021/04/24 11:59:27;;;;;;;1.13;0.20;;;;;;;9.52;32.12;99786.23;1704548;82;21200;-52
2021/04/24 12:02:02;;;;;;;0.40;0.10;;;;;;;9.57;32.03;99796.30;1709006;82;21247;-52